Time;durP1;ratioP1;P1;durP2;ratioP2;P2;SDS_P1;SDS_P2;PMS_P1;PMS_P2;Temp;Humidity;BMP_temperature;BMP_pressure;BME280_temperature;BME280_humidity;BME280_pressure;Samples;Min_cycle;Max_cycle;Signal;HPM_P1;HPM_P2
2021/01/21 00:02:02;;;;;;;;;;;0.60;92.70;;;;;;5100876;27;82097;-48
2021/01/21 00:04:28;;;;;;;;;;;0.60;92.70;;;;;;5100048;27;84098;-47
2021/01/21 00:06:53;;;;;;;;;;;0.60;92.70;;;;;;5102354;27;82690;-48
2021/01/21 00:09:20;;;;;;;;;;;0.60;92.70;;;;;;5085420;27;82088;-47
2021/01/21 00:11:45;;;;;;;;;;;0.60;92.70;;;;;;5083542;27;84098;-48
2021/01/21 00:14:11;;;;;;;;;;;0.60;92.70;;;;;;5083826;27;84504;-48
2021/01/21 00:16:36;;;;;;;;;;;0.60;92.70;;;;;;5084405;27;82895;-47
2021/01/21 00:19:02;;;;;;;;;;;0.60;92.70;;;;;;5094965;27;83277;-48
2021/01/21 00:21:27;;;;;;;;;;;0.60;92.70;;;;;;5103417;27;82121;-48
2021/01/21 00:23:54;;;;;;;;;;;0.60;92.70;;;;;;5102508;27;82992;-48
2021/01/21 00:26:20;;;;;;;;;;;0.60;92.70;;;;;;5101221;27;84512;-48
2021/01/21 00:28:45;;;;;;;;;;;0.60;92.80;;;;;;5092708;27;83998;-47
2021/01/21 00:31:11;;;;;;;;;;;0.60;92.80;;;;;;5081193;27;82483;-48
2021/01/21 00:33:36;;;;;;;;;;;0.60;92.80;;;;;;5083293;27;82514;-47
2021/01/21 00:36:02;;;;;;;;;;;0.60;92.80;;;;;;5082195;27;82996;-47
2021/01/21 00:38:27;;;;;;;;;;;0.60;92.80;;;;;;5088081;27;83931;-49
2021/01/21 00:40:53;;;;;;;;;;;0.60;92.70;;;;;;5102800;27;82056;-47
2021/01/21 00:43:18;;;;;;;;;;;0.60;92.80;;;;;;5102004;27;82707;-48
2021/01/21 00:45:44;;;;;;;;;;;0.60;92.70;;;;;;5102379;27;83135;-47
2021/01/21 00:48:09;;;;;;;;;;;0.60;92.70;;;;;;5101501;27;82167;-48
2021/01/21 00:50:35;;;;;;;;;;;0.60;92.80;;;;;;5102215;27;82484;-48
2021/01/21 00:53:00;;;;;;;;;;;0.60;92.80;;;;;;5101475;27;82875;-47
2021/01/21 00:55:26;;;;;;;;;;;0.60;92.80;;;;;;5106548;27;81337;-47
2021/01/21 00:57:51;;;;;;;;;;;0.60;92.70;;;;;;5102826;27;83380;-47
2021/01/21 01:00:17;;;;;;;;;;;0.60;92.70;;;;;;5082448;27;82075;-47
2021/01/21 01:02:43;;;;;;;;;;;0.50;92.80;;;;;;5086111;27;84159;-48
2021/01/21 01:05:09;;;;;;;;;;;0.60;92.80;;;;;;5087264;27;83178;-47
2021/01/21 01:07:34;;;;;;;;;;;0.60;92.80;;;;;;5085844;27;82118;-48
2021/01/21 01:10:00;;;;;;;;;;;0.60;92.80;;;;;;5103995;27;82126;-47
2021/01/21 01:12:25;;;;;;;;;;;0.60;92.80;;;;;;5107247;27;83143;-48
2021/01/21 01:14:51;;;;;;;;;;;0.60;92.80;;;;;;5110118;27;82037;-48
2021/01/21 01:17:16;;;;;;;;;;;0.60;92.80;;;;;;5107205;27;82993;-49
2021/01/21 01:19:42;;;;;;;;;;;0.60;92.80;;;;;;5090350;27;82172;-47
2021/01/21 01:22:07;;;;;;;;;;;0.60;92.80;;;;;;5082579;27;82120;-47
2021/01/21 01:24:33;;;;;;;;;;;0.60;92.80;;;;;;5085178;27;83432;-50
2021/01/21 01:26:58;;;;;;;;;;;0.60;92.80;;;;;;5086345;27;83109;-49
2021/01/21 01:29:24;;;;;;;;;;;0.60;92.80;;;;;;5098726;27;83627;-47
2021/01/21 01:31:49;;;;;;;;;;;0.60;92.70;;;;;;5105914;27;84041;-47
2021/01/21 01:34:15;;;;;;;;;;;0.60;92.70;;;;;;5105536;27;82103;-48
2021/01/21 01:36:40;;;;;;;;;;;0.60;92.70;;;;;;5107427;27;82956;-48
2021/01/21 01:39:06;;;;;;;;;;;0.60;92.70;;;;;;5103915;27;82142;-47
2021/01/21 01:41:31;;;;;;;;;;;0.60;92.70;;;;;;5104641;27;83937;-47
2021/01/21 01:43:57;;;;;;;;;;;0.60;92.70;;;;;;5104230;27;81865;-48
2021/01/21 01:46:25;;;;;;;;;;;0.60;92.80;;;;;;5104247;27;82189;-47
2021/01/21 01:48:50;;;;;;;;;;;0.60;92.80;;;;;;5099286;27;82094;-47
2021/01/21 01:51:16;;;;;;;;;;;0.60;92.80;;;;;;5085733;27;83943;-50
2021/01/21 01:53:41;;;;;;;;;;;0.60;92.80;;;;;;5083542;27;83737;-47
2021/01/21 01:56:07;;;;;;;;;;;0.50;92.80;;;;;;5081576;27;83748;-47
2021/01/21 01:58:32;;;;;;;;;;;0.60;92.80;;;;;;5092057;27;82912;-52
2021/01/21 02:00:59;;;;;;;;;;;0.60;92.80;;;;;;5104431;27;83232;-47
2021/01/21 02:03:24;;;;;;;;;;;0.60;92.80;;;;;;5103270;27;83308;-47
2021/01/21 02:05:50;;;;;;;;;;;0.60;92.80;;;;;;5105266;27;83467;-48
2021/01/21 02:08:17;;;;;;;;;;;0.60;92.80;;;;;;5107146;27;82463;-47
2021/01/21 02:10:45;;;;;;;;;;;0.60;92.80;;;;;;5104199;27;84563;-47
2021/01/21 02:13:26;;;;;;;;;;;0.60;92.80;;;;;;5106038;27;82082;-47
2021/01/21 02:16:07;;;;;;;;;;;0.60;92.80;;;;;;5104273;27;83050;-47
2021/01/21 02:18:41;;;;;;;;;;;0.60;92.90;;;;;;5091503;27;83249;-48
2021/01/21 02:21:12;;;;;;;;;;;0.50;92.80;;;;;;5087498;27;82095;-48
2021/01/21 02:24:02;;;;;;;;;;;0.60;92.80;;;;;;5083661;27;83539;-48
2021/01/21 02:26:29;;;;;;;;;;;0.60;92.80;;;;;;5086094;27;82126;-49
2021/01/21 02:29:08;;;;;;;;;;;0.60;92.80;;;;;;5082193;27;82096;-49
2021/01/21 02:31:57;;;;;;;;;;;0.60;92.80;;;;;;5083178;27;84461;-49
2021/01/21 02:34:27;;;;;;;;;;;0.60;92.80;;;;;;5081409;27;81424;-48
2021/01/21 02:36:55;;;;;;;;;;;0.60;92.80;;;;;;5082242;27;82081;-47
2021/01/21 02:39:21;;;;;;;;;;;0.60;92.80;;;;;;5085214;27;84792;-48
2021/01/21 02:41:47;;;;;;;;;;;0.60;93.10;;;;;;5082842;27;83079;-47
2021/01/21 02:44:13;;;;;;;;;;;0.60;92.90;;;;;;5085650;27;82936;-49
2021/01/21 02:46:39;;;;;;;;;;;0.60;92.80;;;;;;5083406;27;82109;-47
2021/01/21 02:49:04;;;;;;;;;;;0.60;92.80;;;;;;5095340;27;82139;-47
2021/01/21 02:51:49;;;;;;;;;;;0.60;92.80;;;;;;5102850;27;82159;-47
2021/01/21 02:54:14;;;;;;;;;;;0.60;92.90;;;;;;5105706;27;83097;-47
2021/01/21 02:56:42;;;;;;;;;;;0.50;92.90;;;;;;5102003;27;83932;-48
2021/01/21 02:59:12;;;;;;;;;;;0.60;92.90;;;;;;5092487;27;83920;-47
2021/01/21 03:01:37;;;;;;;;;;;0.60;92.90;;;;;;5083016;27;83149;-49
2021/01/21 03:04:03;;;;;;;;;;;0.60;92.80;;;;;;5087553;27;83698;-48
2021/01/21 03:06:30;;;;;;;;;;;0.60;92.80;;;;;;5084280;27;83028;-47
2021/01/21 03:08:58;;;;;;;;;;;0.60;92.80;;;;;;5093366;27;83354;-47
2021/01/21 03:11:24;;;;;;;;;;;0.60;92.80;;;;;;5085161;27;83650;-48
2021/01/21 03:13:49;;;;;;;;;;;0.60;92.80;;;;;;5085533;27;82078;-47
2021/01/21 03:16:15;;;;;;;;;;;0.60;92.80;;;;;;5084909;27;83718;-48
2021/01/21 03:18:40;;;;;;;;;;;0.60;92.80;;;;;;5092234;27;84376;-48
2021/01/21 03:21:06;;;;;;;;;;;0.60;92.80;;;;;;5106186;27;82114;-48
2021/01/21 03:23:31;;;;;;;;;;;0.60;92.80;;;;;;5106088;27;83038;-48
2021/01/21 03:25:57;;;;;;;;;;;0.60;92.80;;;;;;5108098;27;82646;-49
2021/01/21 03:28:23;;;;;;;;;;;0.60;92.80;;;;;;5099823;27;82069;-47
2021/01/21 03:30:48;;;;;;;;;;;0.60;92.80;;;;;;5082652;27;83744;-47
2021/01/21 03:33:13;;;;;;;;;;;0.60;92.80;;;;;;5084423;27;82073;-49
2021/01/21 03:35:39;;;;;;;;;;;0.60;92.80;;;;;;5083931;27;82491;-47
2021/01/21 03:38:04;;;;;;;;;;;0.60;92.80;;;;;;5085287;27;83191;-48
2021/01/21 03:40:30;;;;;;;;;;;0.60;92.90;;;;;;5103972;27;82134;-48
2021/01/21 03:42:55;;;;;;;;;;;0.60;92.80;;;;;;5103885;27;82096;-47
2021/01/21 03:45:21;;;;;;;;;;;0.60;92.80;;;;;;5103015;27;82540;-47
2021/01/21 03:47:46;;;;;;;;;;;0.60;92.80;;;;;;5106005;27;81434;-47
2021/01/21 03:50:12;;;;;;;;;;;0.60;92.80;;;;;;5102775;27;83665;-48
2021/01/21 03:52:38;;;;;;;;;;;0.60;92.90;;;;;;5102111;27;82073;-48
2021/01/21 03:55:03;;;;;;;;;;;0.60;92.80;;;;;;5100684;27;83139;-49
2021/01/21 03:57:29;;;;;;;;;;;0.60;92.80;;;;;;5099985;27;84639;-48
2021/01/21 03:59:54;;;;;;;;;;;0.60;92.80;;;;;;5084307;27;83090;-48
2021/01/21 04:02:20;;;;;;;;;;;0.60;92.90;;;;;;5084515;27;84262;-48
2021/01/21 04:04:45;;;;;;;;;;;0.60;92.80;;;;;;5084467;27;82948;-49
2021/01/21 04:07:11;;;;;;;;;;;0.60;92.80;;;;;;5083247;27;83412;-47
2021/01/21 04:09:36;;;;;;;;;;;0.60;92.80;;;;;;5097828;27;83693;-47
2021/01/21 04:12:02;;;;;;;;;;;0.60;92.90;;;;;;5105059;27;81417;-48
2021/01/21 04:14:27;;;;;;;;;;;0.60;92.90;;;;;;5103664;27;83017;-47
2021/01/21 04:16:53;;;;;;;;;;;0.60;92.90;;;;;;5104681;27;84166;-50
2021/01/21 04:19:18;;;;;;;;;;;0.60;92.80;;;;;;5092313;27;83073;-47
2021/01/21 04:21:44;;;;;;;;;;;0.60;92.90;;;;;;5083386;27;82782;-47
2021/01/21 04:24:10;;;;;;;;;;;0.60;92.90;;;;;;5082406;27;84737;-47
2021/01/21 04:26:35;;;;;;;;;;;0.60;92.90;;;;;;5081498;27;82088;-48
2021/01/21 04:29:01;;;;;;;;;;;0.60;92.90;;;;;;5080844;27;83253;-48
2021/01/21 04:31:26;;;;;;;;;;;0.60;92.90;;;;;;5086133;27;82733;-47
2021/01/21 04:33:52;;;;;;;;;;;0.60;92.90;;;;;;5083247;27;82528;-47
2021/01/21 04:36:17;;;;;;;;;;;0.60;92.90;;;;;;5084024;27;82382;-47
2021/01/21 04:38:43;;;;;;;;;;;0.60;92.90;;;;;;5088925;27;82051;-47
2021/01/21 04:41:09;;;;;;;;;;;0.60;92.90;;;;;;5104183;27;82858;-50
2021/01/21 04:43:34;;;;;;;;;;;0.60;92.90;;;;;;5102874;27;86006;-51
2021/01/21 04:46:00;;;;;;;;;;;0.60;92.80;;;;;;5107703;27;83669;-50
2021/01/21 04:48:25;;;;;;;;;;;0.60;92.90;;;;;;5105157;27;82052;-47
2021/01/21 04:50:51;;;;;;;;;;;0.70;92.90;;;;;;5086727;27;84640;-50
2021/01/21 04:53:19;;;;;;;;;;;0.60;92.90;;;;;;5089208;27;82030;-48
2021/01/21 04:55:53;;;;;;;;;;;0.70;92.90;;;;;;5082534;27;83118;-48
2021/01/21 04:58:26;;;;;;;;;;;0.70;92.90;;;;;;5086532;27;82183;-47
2021/01/21 05:00:53;;;;;;;;;;;0.70;92.90;;;;;;5108508;27;82981;-49
2021/01/21 05:03:18;;;;;;;;;;;0.70;92.90;;;;;;5106273;27;83127;-47
2021/01/21 05:05:45;;;;;;;;;;;0.70;92.90;;;;;;5106329;27;82062;-47
2021/01/21 05:08:10;;;;;;;;;;;0.70;92.90;;;;;;5104495;27;83046;-49
2021/01/21 05:10:36;;;;;;;;;;;0.70;92.90;;;;;;5084799;27;82695;-47
2021/01/21 05:13:02;;;;;;;;;;;0.70;92.90;;;;;;5086946;27;82130;-47
2021/01/21 05:15:27;;;;;;;;;;;0.70;92.90;;;;;;5085200;27;82206;-47
2021/01/21 05:17:53;;;;;;;;;;;0.70;92.90;;;;;;5085100;27;82092;-48
2021/01/21 05:20:22;;;;;;;;;;;0.70;92.90;;;;;;5084020;27;82975;-48
2021/01/21 05:22:47;;;;;;;;;;;0.70;92.90;;;;;;5086032;27;82663;-48
2021/01/21 05:25:13;;;;;;;;;;;0.70;92.80;;;;;;5086992;27;81391;-47
2021/01/21 05:27:38;;;;;;;;;;;0.70;92.90;;;;;;5087104;27;82066;-48
2021/01/21 05:30:04;;;;;;;;;;;0.70;92.90;;;;;;5101835;27;82939;-47
2021/01/21 05:32:30;;;;;;;;;;;0.70;92.90;;;;;;5104791;27;83075;-47
2021/01/21 05:34:55;;;;;;;;;;;0.70;92.90;;;;;;5107626;27;82535;-47
2021/01/21 05:37:21;;;;;;;;;;;0.70;92.90;;;;;;5104411;27;82089;-48
2021/01/21 05:39:46;;;;;;;;;;;0.70;92.90;;;;;;5105343;27;82080;-48
2021/01/21 05:42:13;;;;;;;;;;;0.70;92.90;;;;;;5104808;27;83107;-47
2021/01/21 05:44:38;;;;;;;;;;;0.70;92.90;;;;;;5104577;27;82123;-48
2021/01/21 05:47:05;;;;;;;;;;;0.70;92.90;;;;;;5103598;27;83024;-48
2021/01/21 05:49:31;;;;;;;;;;;0.70;92.90;;;;;;5093879;27;82959;-48
2021/01/21 05:51:57;;;;;;;;;;;0.70;92.80;;;;;;5086496;27;82288;-47
2021/01/21 05:54:27;;;;;;;;;;;0.70;93.10;;;;;;5084916;27;82658;-47
2021/01/21 05:56:54;;;;;;;;;;;0.70;92.90;;;;;;5086311;27;85686;-47
2021/01/21 05:59:20;;;;;;;;;;;0.70;92.80;;;;;;5082264;27;83573;-47
2021/01/21 06:01:46;;;;;;;;;;;0.70;92.90;;;;;;5082407;27;84583;-47
2021/01/21 06:04:12;;;;;;;;;;;0.70;92.90;;;;;;5085664;27;82168;-48
2021/01/21 06:06:39;;;;;;;;;;;0.70;92.90;;;;;;5083958;27;82943;-47
2021/01/21 06:09:06;;;;;;;;;;;0.70;92.90;;;;;;5081023;27;84565;-47
2021/01/21 06:11:31;;;;;;;;;;;0.70;92.90;;;;;;5082188;27;83633;-48
2021/01/21 06:13:57;;;;;;;;;;;0.70;92.90;;;;;;5081615;27;83924;-47
2021/01/21 06:16:23;;;;;;;;;;;0.70;92.90;;;;;;5082586;27;83402;-47
2021/01/21 06:18:49;;;;;;;;;;;0.70;92.80;;;;;;5092067;27;83331;-47
2021/01/21 06:21:17;;;;;;;;;;;0.70;92.90;;;;;;5105853;27;83866;-48
2021/01/21 06:23:43;;;;;;;;;;;0.80;92.90;;;;;;5103204;27;82119;-48
2021/01/21 06:26:11;;;;;;;;;;;0.70;92.90;;;;;;5101785;27;83008;-47
2021/01/21 06:28:38;;;;;;;;;;;0.70;92.90;;;;;;5104671;27;84296;-47
2021/01/21 06:31:05;;;;;;;;;;;0.70;92.90;;;;;;5103081;27;82154;-49
2021/01/21 06:33:33;;;;;;;;;;;0.70;92.90;;;;;;5102524;27;83764;-47
2021/01/21 06:36:02;;;;;;;;;;;0.80;92.90;;;;;;5106196;27;83606;-47
2021/01/21 06:38:48;;;;;;;;;;;0.70;92.80;;;;;;5107040;27;82908;-50
2021/01/21 06:41:18;;;;;;;;;;;0.80;92.90;;;;;;5107777;27;82113;-47
2021/01/21 06:43:45;;;;;;;;;;;0.80;92.90;;;;;;5105559;27;82152;-47
2021/01/21 06:46:12;;;;;;;;;;;0.70;92.90;;;;;;5103125;27;83006;-48
2021/01/21 06:48:38;;;;;;;;;;;0.80;92.90;;;;;;5102063;27;82998;-47
2021/01/21 06:51:08;;;;;;;;;;;0.80;92.90;;;;;;5080571;27;82116;-48
2021/01/21 06:53:34;;;;;;;;;;;0.80;92.90;;;;;;5080328;27;82148;-48
2021/01/21 06:56:00;;;;;;;;;;;0.80;92.90;;;;;;5084418;27;83219;-47
2021/01/21 06:58:45;;;;;;;;;;;0.80;92.90;;;;;;5085569;27;82129;-48
2021/01/21 07:01:28;;;;;;;;;;;0.80;92.80;;;;;;5083708;27;82085;-47
2021/01/21 07:03:54;;;;;;;;;;;0.80;92.90;;;;;;5085294;27;82791;-47
2021/01/21 07:06:19;;;;;;;;;;;0.80;92.80;;;;;;5081645;27;82099;-47
2021/01/21 07:09:04;;;;;;;;;;;0.80;92.80;;;;;;5081708;27;83620;-48
2021/01/21 07:11:30;;;;;;;;;;;0.80;92.80;;;;;;5100498;27;83021;-47
2021/01/21 07:13:56;;;;;;;;;;;0.80;92.90;;;;;;5105432;27;83345;-47
2021/01/21 07:16:22;;;;;;;;;;;0.80;92.90;;;;;;5105264;27;83152;-49
2021/01/21 07:18:47;;;;;;;;;;;0.80;92.90;;;;;;5102678;27;82155;-48
2021/01/21 07:21:16;;;;;;;;;;;0.80;92.90;;;;;;5083276;27;82120;-47
2021/01/21 07:23:54;;;;;;;;;;;0.80;92.90;;;;;;5083043;27;85060;-47
2021/01/21 07:26:30;;;;;;;;;;;0.80;92.90;;;;;;5083480;27;82265;-47
2021/01/21 07:29:02;;;;;;;;;;;0.90;92.90;;;;;;5083965;27;84247;-47
2021/01/21 07:31:46;;;;;;;;;;;0.80;92.80;;;;;;5101520;27;82105;-48
2021/01/21 07:34:21;;;;;;;;;;;0.80;92.90;;;;;;5102834;27;83024;-47
2021/01/21 07:36:46;;;;;;;;;;;0.80;92.90;;;;;;5101798;27;84974;-47
2021/01/21 07:39:12;;;;;;;;;;;0.80;92.90;;;;;;5101367;27;82050;-48
2021/01/21 07:41:40;;;;;;;;;;;0.80;92.90;;;;;;5101155;27;82173;-49
2021/01/21 07:44:06;;;;;;;;;;;0.90;92.90;;;;;;5104495;27;83719;-47
2021/01/21 07:46:32;;;;;;;;;;;0.90;92.90;;;;;;5106734;27;82113;-47
2021/01/21 07:49:16;;;;;;;;;;;0.80;92.90;;;;;;5100472;27;82580;-47
2021/01/21 07:51:41;;;;;;;;;;;0.90;92.90;;;;;;5083702;27;82118;-48
2021/01/21 07:54:07;;;;;;;;;;;0.90;92.90;;;;;;5084016;27;82578;-48
2021/01/21 07:56:32;;;;;;;;;;;0.90;92.90;;;;;;5084570;27;83789;-47
2021/01/21 07:59:01;;;;;;;;;;;0.90;92.90;;;;;;5084814;27;83041;-47
2021/01/21 08:01:26;;;;;;;;;;;0.90;92.90;;;;;;5100675;27;83096;-47
2021/01/21 08:03:52;;;;;;;;;;;0.90;92.90;;;;;;5101738;27;83338;-47
2021/01/21 08:06:18;;;;;;;;;;;0.90;93.20;;;;;;5094272;27;82151;-47
2021/01/21 08:08:47;;;;;;;;;;;0.90;92.90;;;;;;5086625;27;84266;-47
2021/01/21 08:11:14;;;;;;;;;;;0.90;92.90;;;;;;5085977;27;82176;-47
2021/01/21 08:13:40;;;;;;;;;;;0.90;92.90;;;;;;5083265;27;84146;-47
2021/01/21 08:16:06;;;;;;;;;;;0.90;92.90;;;;;;5086675;27;88621;-47
2021/01/21 08:18:32;;;;;;;;;;;1.00;92.90;;;;;;5105669;27;86497;-47
2021/01/21 08:20:58;;;;;;;;;;;1.00;92.90;;;;;;5104542;27;87146;-48
2021/01/21 08:23:24;;;;;;;;;;;1.00;92.90;;;;;;5104213;27;89010;-47
2021/01/21 08:25:50;;;;;;;;;;;1.00;92.90;;;;;;5100575;27;88191;-47
2021/01/21 08:28:24;;;;;;;;;;;1.00;92.80;;;;;;5083730;27;89698;-48
2021/01/21 08:30:50;;;;;;;;;;;1.00;92.80;;;;;;5084959;27;89247;-47
2021/01/21 08:33:28;;;;;;;;;;;1.00;92.80;;;;;;5084320;27;89059;-48
2021/01/21 08:35:55;;;;;;;;;;;1.00;92.80;;;;;;5081676;27;89622;-47
2021/01/21 08:38:22;;;;;;;;;;;1.00;92.80;;;;;;5104849;27;87178;-47
2021/01/21 08:40:48;;;;;;;;;;;1.00;92.80;;;;;;5102047;27;88994;-48
2021/01/21 08:43:14;;;;;;;;;;;1.00;92.80;;;;;;5100747;27;89424;-48
2021/01/21 08:45:39;;;;;;;;;;;1.00;92.80;;;;;;5101671;27;87748;-48
2021/01/21 08:48:05;;;;;;;;;;;1.00;92.80;;;;;;5084686;27;87425;-47
2021/01/21 08:50:34;;;;;;;;;;;1.10;92.80;;;;;;5082761;27;88870;-47
2021/01/21 08:53:01;;;;;;;;;;;1.10;92.80;;;;;;5086993;27;87770;-48
2021/01/21 08:55:40;;;;;;;;;;;1.10;92.80;;;;;;5081501;27;89150;-47
2021/01/21 08:58:07;;;;;;;;;;;1.10;92.80;;;;;;5083469;27;87152;-48
2021/01/21 09:00:33;;;;;;;;;;;1.10;92.80;;;;;;5083036;27;87264;-47
2021/01/21 09:02:59;;;;;;;;;;;1.10;92.80;;;;;;5080391;27;88069;-47
2021/01/21 09:05:24;;;;;;;;;;;1.10;92.80;;;;;;5079839;27;87243;-47
2021/01/21 09:07:51;;;;;;;;;;;1.10;92.80;;;;;;5097491;27;87625;-47
2021/01/21 09:10:17;;;;;;;;;;;1.10;92.70;;;;;;5104297;27;87601;-47
2021/01/21 09:12:43;;;;;;;;;;;1.10;92.70;;;;;;5102595;27;87193;-47
2021/01/21 09:15:09;;;;;;;;;;;1.20;92.70;;;;;;5104000;27;88219;-47
2021/01/21 09:17:37;;;;;;;;;;;1.20;92.70;;;;;;5084532;27;87219;-47
2021/01/21 09:20:19;;;;;;;;;;;1.20;92.70;;;;;;5081912;27;88151;-48
2021/01/21 09:22:44;;;;;;;;;;;1.20;92.70;;;;;;5081954;27;89601;-48
2021/01/21 09:25:10;;;;;;;;;;;1.20;92.70;;;;;;5081567;27;87179;-47
2021/01/21 09:27:36;;;;;;;;;;;1.20;92.70;;;;;;5097633;27;87492;-47
2021/01/21 09:30:01;;;;;;;;;;;1.20;92.70;;;;;;5101641;27;87674;-47
2021/01/21 09:32:28;;;;;;;;;;;1.20;92.90;;;;;;5102275;27;86444;-48
2021/01/21 09:34:58;;;;;;;;;;;1.20;92.60;;;;;;5102402;27;87131;-47
2021/01/21 09:37:28;;;;;;;;;;;1.20;92.70;;;;;;5087353;27;87195;-46
2021/01/21 09:39:53;;;;;;;;;;;1.20;92.60;;;;;;5080136;27;88225;-47
2021/01/21 09:42:19;;;;;;;;;;;1.20;92.70;;;;;;5079224;27;89037;-47
2021/01/21 09:44:45;;;;;;;;;;;1.20;92.70;;;;;;5078193;27;87191;-47
2021/01/21 09:47:11;;;;;;;;;;;1.30;92.60;;;;;;5080056;27;88759;-47
2021/01/21 09:49:36;;;;;;;;;;;1.30;92.60;;;;;;5078088;27;89622;-47
2021/01/21 09:52:05;;;;;;;;;;;1.30;92.60;;;;;;5080759;27;88677;-48
2021/01/21 09:54:31;;;;;;;;;;;1.30;92.60;;;;;;5079637;27;89063;-47
2021/01/21 09:56:56;;;;;;;;;;;1.30;92.90;;;;;;5090991;27;87475;-47
2021/01/21 09:59:22;;;;;;;;;;;1.30;92.60;;;;;;5100016;27;87425;-47
2021/01/21 10:01:48;;;;;;;;;;;1.30;92.60;;;;;;5098299;27;89178;-48
2021/01/21 10:04:14;;;;;;;;;;;1.30;92.60;;;;;;5099209;27;88825;-47
2021/01/21 10:06:40;;;;;;;;;;;1.30;92.50;;;;;;5095471;27;88709;-47
2021/01/21 10:09:05;;;;;;;;;;;1.30;92.50;;;;;;5082760;27;88055;-48
2021/01/21 10:11:31;;;;;;;;;;;1.30;92.50;;;;;;5081907;27;87152;-47
2021/01/21 10:13:56;;;;;;;;;;;1.40;92.60;;;;;;5081135;27;87928;-47
2021/01/21 10:16:22;;;;;;;;;;;1.40;92.60;;;;;;5083502;27;88079;-48
2021/01/21 10:18:48;;;;;;;;;;;1.40;92.50;;;;;;5102820;27;87128;-47
2021/01/21 10:21:14;;;;;;;;;;;1.40;92.50;;;;;;5099029;27;88798;-47
2021/01/21 10:23:40;;;;;;;;;;;1.40;92.50;;;;;;5099179;27;88335;-47
2021/01/21 10:26:05;;;;;;;;;;;1.40;92.50;;;;;;5099220;27;88897;-47
2021/01/21 10:28:31;;;;;;;;;;;1.40;92.80;;;;;;5080556;27;89830;-47
2021/01/21 10:30:56;;;;;;;;;;;1.40;92.50;;;;;;5082192;27;87249;-48
2021/01/21 10:33:22;;;;;;;;;;;1.40;92.50;;;;;;5081988;27;87236;-47
2021/01/21 10:35:47;;;;;;;;;;;1.50;92.40;;;;;;5080797;27;88175;-48
2021/01/21 10:38:13;;;;;;;;;;;1.50;92.50;;;;;;5080135;27;87192;-47
2021/01/21 10:40:39;;;;;;;;;;;1.50;92.50;;;;;;5083591;27;88209;-47
2021/01/21 10:43:04;;;;;;;;;;;1.50;92.50;;;;;;5079353;27;87219;-48
2021/01/21 10:45:30;;;;;;;;;;;1.50;92.40;;;;;;5079162;27;86995;-47
2021/01/21 10:47:55;;;;;;;;;;;1.50;92.40;;;;;;5077484;27;87718;-48
2021/01/21 10:50:21;;;;;;;;;;;1.50;92.40;;;;;;5077141;27;87154;-47
2021/01/21 10:52:46;;;;;;;;;;;1.50;92.40;;;;;;5078447;27;88115;-47
2021/01/21 10:55:12;;;;;;;;;;;1.50;92.40;;;;;;5079739;27;88350;-48
2021/01/21 10:57:37;;;;;;;;;;;1.50;92.40;;;;;;5091877;27;87959;-48
2021/01/21 11:00:04;;;;;;;;;;;1.50;92.40;;;;;;5097684;27;88911;-47
2021/01/21 11:02:29;;;;;;;;;;;1.60;92.40;;;;;;5105527;27;87960;-47
2021/01/21 11:04:55;;;;;;;;;;;1.50;92.40;;;;;;5102729;27;88839;-48
2021/01/21 11:07:20;;;;;;;;;;;1.60;92.40;;;;;;5099520;27;88654;-48
2021/01/21 11:09:46;;;;;;;;;;;1.50;92.40;;;;;;5102172;27;87584;-47
2021/01/21 11:12:11;;;;;;;;;;;1.60;92.40;;;;;;5102796;27;87125;-47
2021/01/21 11:14:38;;;;;;;;;;;1.60;92.40;;;;;;5101076;27;88387;-47
2021/01/21 11:17:03;;;;;;;;;;;1.60;92.40;;;;;;5100112;27;88186;-47
2021/01/21 11:19:29;;;;;;;;;;;1.60;92.40;;;;;;5100052;27;89349;-47
2021/01/21 11:21:54;;;;;;;;;;;1.60;92.60;;;;;;5100440;27;88876;-48
2021/01/21 11:24:20;;;;;;;;;;;1.70;92.40;;;;;;5102971;27;87156;-47
2021/01/21 11:26:46;;;;;;;;;;;1.70;92.40;;;;;;5095643;27;88019;-47
2021/01/21 11:29:11;;;;;;;;;;;1.60;92.30;;;;;;5080698;27;87186;-47
2021/01/21 11:31:37;;;;;;;;;;;1.70;92.30;;;;;;5079485;27;87453;-48
2021/01/21 11:34:02;;;;;;;;;;;1.60;92.40;;;;;;5079102;27;87444;-48
2021/01/21 11:36:28;;;;;;;;;;;1.70;92.40;;;;;;5079940;27;87108;-47
2021/01/21 11:38:53;;;;;;;;;;;1.70;92.40;;;;;;5097694;27;87522;-47
2021/01/21 11:41:19;;;;;;;;;;;1.70;92.40;;;;;;5097925;27;88898;-47
2021/01/21 11:43:44;;;;;;;;;;;1.70;92.40;;;;;;5102472;27;87130;-47
2021/01/21 11:46:10;;;;;;;;;;;1.70;92.30;;;;;;5100074;27;87545;-47
2021/01/21 11:48:35;;;;;;;;;;;1.70;92.30;;;;;;5081935;27;87107;-48
2021/01/21 11:51:01;;;;;;;;;;;1.70;92.30;;;;;;5080976;27;87878;-47
2021/01/21 11:53:26;;;;;;;;;;;1.70;92.30;;;;;;5079955;27;87481;-48
2021/01/21 11:55:52;;;;;;;;;;;1.80;92.30;;;;;;5079171;27;87123;-47
2021/01/21 11:58:17;;;;;;;;;;;1.80;92.20;;;;;;5079004;27;87371;-47
2021/01/21 12:00:43;;;;;;;;;;;1.80;92.40;;;;;;5077453;27;88284;-47
2021/01/21 12:03:08;;;;;;;;;;;1.80;92.40;;;;;;5077399;27;87204;-47
2021/01/21 12:05:34;;;;;;;;;;;1.80;92.20;;;;;;5078415;27;88064;-47
2021/01/21 12:07:59;;;;;;;;;;;1.80;92.40;;;;;;5090255;27;87300;-47
2021/01/21 12:10:25;;;;;;;;;;;1.80;92.30;;;;;;5096775;27;89228;-47
2021/01/21 12:12:50;;;;;;;;;;;1.80;92.30;;;;;;5097375;27;88315;-47
2021/01/21 12:15:16;;;;;;;;;;;1.80;92.30;;;;;;5101340;27;88254;-48
2021/01/21 12:17:42;;;;;;;;;;;1.90;92.20;;;;;;5088771;27;88663;-49
2021/01/21 12:20:08;;;;;;;;;;;1.90;92.30;;;;;;5077742;27;88026;-47
2021/01/21 12:22:34;;;;;;;;;;;1.80;92.20;;;;;;5076972;27;87181;-48
2021/01/21 12:24:59;;;;;;;;;;;1.90;92.20;;;;;;5077496;27;87144;-49
2021/01/21 12:27:25;;;;;;;;;;;1.90;92.20;;;;;;5089330;27;89446;-47
2021/01/21 12:29:50;;;;;;;;;;;1.90;92.20;;;;;;5097801;27;89040;-48
2021/01/21 12:32:16;;;;;;;;;;;1.90;92.30;;;;;;5097619;27;88505;-47
2021/01/21 12:34:41;;;;;;;;;;;1.90;92.20;;;;;;5099113;27;87249;-47
2021/01/21 12:37:07;;;;;;;;;;;1.90;92.30;;;;;;5094773;27;87149;-47
2021/01/21 12:39:32;;;;;;;;;;;1.90;92.20;;;;;;5078883;27;88144;-47
2021/01/21 12:41:58;;;;;;;;;;;1.90;92.30;;;;;;5078753;27;87104;-47
2021/01/21 12:44:23;;;;;;;;;;;1.90;92.20;;;;;;5079235;27;87654;-47
2021/01/21 12:46:49;;;;;;;;;;;2.00;92.30;;;;;;5078648;27;86936;-47
2021/01/21 12:49:14;;;;;;;;;;;2.00;92.30;;;;;;5082094;27;87227;-49
2021/01/21 12:51:40;;;;;;;;;;;2.00;92.50;;;;;;5080830;27;87686;-47
2021/01/21 12:54:05;;;;;;;;;;;2.00;92.20;;;;;;5080494;27;88159;-47
2021/01/21 12:56:31;;;;;;;;;;;2.00;92.20;;;;;;5080524;27;87692;-48
2021/01/21 12:58:57;;;;;;;;;;;2.00;92.20;;;;;;5079183;27;87638;-47
2021/01/21 13:01:22;;;;;;;;;;;2.00;92.20;;;;;;5080668;27;87171;-51
2021/01/21 13:03:48;;;;;;;;;;;2.10;92.20;;;;;;5083960;27;87874;-50
2021/01/21 13:06:13;;;;;;;;;;;2.10;92.20;;;;;;5080884;27;88368;-47
2021/01/21 13:08:39;;;;;;;;;;;2.00;92.20;;;;;;5096376;27;87193;-47
2021/01/21 13:11:04;;;;;;;;;;;2.10;92.20;;;;;;5104672;27;87415;-49
2021/01/21 13:13:32;;;;;;;;;;;2.10;92.20;;;;;;5101817;27;88602;-47
2021/01/21 13:15:58;;;;;;;;;;;2.10;92.20;;;;;;5102562;27;88420;-49
2021/01/21 13:18:23;;;;;;;;;;;2.10;92.30;;;;;;5085454;27;88665;-47
2021/01/21 13:20:49;;;;;;;;;;;2.10;92.20;;;;;;5080165;27;87166;-47
2021/01/21 13:23:15;;;;;;;;;;;2.10;92.20;;;;;;5078567;27;88850;-47
2021/01/21 13:25:41;;;;;;;;;;;2.10;92.20;;;;;;5081627;27;89452;-48
2021/01/21 13:28:06;;;;;;;;;;;2.10;92.20;;;;;;5083554;27;87108;-48
2021/01/21 13:30:32;;;;;;;;;;;2.10;92.20;;;;;;5084900;27;87524;-47
2021/01/21 13:32:57;;;;;;;;;;;2.10;92.20;;;;;;5082085;27;87197;-47
2021/01/21 13:35:23;;;;;;;;;;;2.10;92.20;;;;;;5083121;27;87021;-48
2021/01/21 13:37:48;;;;;;;;;;;2.10;92.20;;;;;;5090955;27;88332;-47
2021/01/21 13:40:14;;;;;;;;;;;2.20;92.20;;;;;;5102037;27;87183;-48
2021/01/21 13:42:39;;;;;;;;;;;2.20;92.20;;;;;;5100665;27;88131;-47
2021/01/21 13:45:05;;;;;;;;;;;2.20;92.20;;;;;;5101386;27;87990;-47
2021/01/21 13:47:31;;;;;;;;;;;2.20;92.30;;;;;;5093802;27;87123;-47
2021/01/21 13:49:56;;;;;;;;;;;2.20;92.30;;;;;;5079260;27;87712;-48
2021/01/21 13:52:22;;;;;;;;;;;2.20;92.30;;;;;;5080967;27;89636;-47
2021/01/21 13:54:47;;;;;;;;;;;2.20;92.30;;;;;;5080005;27;88154;-47
2021/01/21 13:57:13;;;;;;;;;;;2.20;92.20;;;;;;5084596;27;88675;-48
2021/01/21 13:59:38;;;;;;;;;;;2.20;92.20;;;;;;5103550;27;86519;-48
2021/01/21 14:02:04;;;;;;;;;;;2.20;92.20;;;;;;5102530;27;88671;-48
2021/01/21 14:04:29;;;;;;;;;;;2.20;92.30;;;;;;5103293;27;88323;-48
2021/01/21 14:06:55;;;;;;;;;;;2.20;92.30;;;;;;5102533;27;88659;-49
2021/01/21 14:09:20;;;;;;;;;;;2.30;92.30;;;;;;5103386;27;88512;-47
2021/01/21 14:11:46;;;;;;;;;;;2.30;92.20;;;;;;5102529;27;88101;-47
2021/01/21 14:14:14;;;;;;;;;;;2.30;92.30;;;;;;5105131;27;87135;-47
2021/01/21 14:16:39;;;;;;;;;;;2.30;92.30;;;;;;5098834;27;89611;-47
2021/01/21 14:19:05;;;;;;;;;;;2.30;92.20;;;;;;5079287;27;87096;-46
2021/01/21 14:21:31;;;;;;;;;;;2.30;92.20;;;;;;5078355;27;87577;-48
2021/01/21 14:23:56;;;;;;;;;;;2.30;92.20;;;;;;5080472;27;88602;-47
2021/01/21 14:26:22;;;;;;;;;;;2.30;92.30;;;;;;5083075;27;87141;-48
2021/01/21 14:28:48;;;;;;;;;;;2.30;92.30;;;;;;5098373;27;87447;-47